Time;durP1;ratioP1;P1;durP2;ratioP2;P2;SDS_P1;SDS_P2;PMS_P1;PMS_P2;Temp;Humidity;BMP_temperature;BMP_pressure;BME280_temperature;BME280_humidity;BME280_pressure;Samples;Min_cycle;Max_cycle;Signal;HPM_P1;HPM_P2
2023/01/12 00:01:25;;;;;;;4.38;0.95;;;;;;;8.48;98.62;101009.50;5051013;27;96882;-30
2023/01/12 00:03:51;;;;;;;4.28;0.85;;;;;;;8.52;98.87;101014.75;5050747;27;100866;-30
2023/01/12 00:06:18;;;;;;;3.65;0.47;;;;;;;8.50;99.60;101004.03;5051182;27;101110;-30
2023/01/12 00:08:45;;;;;;;5.15;1.05;;;;;;;8.53;99.19;101001.16;5050837;27;96681;-31
2023/01/12 00:11:10;;;;;;;4.28;1.05;;;;;;;8.53;99.42;100987.66;5050861;27;97767;-30
2023/01/12 00:13:36;;;;;;;6.00;0.90;;;;;;;8.52;99.35;100980.53;5050438;27;100891;-30
2023/01/12 00:18:47;;;;;;;2.35;0.52;;;;;;;8.52;100.00;100977.81;5052612;27;96518;-30
2023/01/12 00:21:13;;;;;;;3.75;1.05;;;;;;;8.55;100.00;100980.38;5053095;27;96817;-30
2023/01/12 00:23:38;;;;;;;7.97;1.38;;;;;;;8.54;100.00;100970.53;5054033;27;100933;-30
2023/01/12 00:26:07;;;;;;;6.60;0.68;;;;;;;8.56;100.00;100957.84;5055830;27;97647;-31
2023/01/12 00:28:37;;;;;;;3.45;0.82;;;;;;;8.58;100.00;100960.44;5053917;27;96788;-30
2023/01/12 00:31:06;;;;;;;5.70;1.55;;;;;;;8.56;100.00;100963.22;5055668;27;96749;-32
2023/01/12 00:33:33;;;;;;;6.57;0.88;;;;;;;8.59;100.00;100948.69;5055435;27;100036;-30
2023/01/12 00:36:02;;;;;;;9.00;1.48;;;;;;;8.60;100.00;100948.59;5054047;27;100828;-31
2023/01/12 00:38:27;;;;;;;4.80;1.02;;;;;;;8.61;100.00;100944.97;5053689;27;97021;-30
2023/01/12 00:40:52;;;;;;;5.30;1.05;;;;;;;8.63;100.00;100950.28;5055782;27;96827;-30
2023/01/12 00:46:02;;;;;;;11.52;1.10;;;;;;;8.67;100.00;100935.66;5055444;27;97004;-30
2023/01/12 00:48:27;;;;;;;4.18;1.40;;;;;;;8.67;100.00;100938.34;5055494;27;96731;-30
2023/01/12 00:50:52;;;;;;;4.97;1.13;;;;;;;8.68;100.00;100919.38;5055499;27;96817;-31
2023/01/12 00:53:18;;;;;;;5.70;0.90;;;;;;;8.68;100.00;100915.81;5055370;27;98149;-30
2023/01/12 00:55:44;;;;;;;8.10;1.48;;;;;;;8.68;100.00;100913.13;5055669;27;97349;-31
2023/01/12 00:58:10;;;;;;;6.70;1.70;;;;;;;8.68;100.00;100913.97;5053914;27;96950;-31
2023/01/12 01:00:35;;;;;;;5.70;0.73;;;;;;;8.64;100.00;100916.94;5055458;27;96801;-29
2023/01/12 01:03:00;;;;;;;3.13;0.88;;;;;;;8.65;100.00;100907.84;5054753;27;97333;-30
2023/01/12 01:05:26;;;;;;;3.90;1.17;;;;;;;8.63;100.00;100904.41;5055048;27;97920;-30
2023/01/12 01:07:51;;;;;;;2.30;0.93;;;;;;;8.63;100.00;100904.41;5054900;27;96640;-30
2023/01/12 01:10:16;;;;;;;7.18;1.38;;;;;;;8.61;100.00;100892.78;5053744;27;96821;-29
2023/01/12 01:12:42;;;;;;;2.95;0.43;;;;;;;8.59;100.00;100898.25;5054684;27;97895;-30
2023/01/12 01:15:08;;;;;;;8.98;0.93;;;;;;;8.60;100.00;100905.41;5054914;27;97795;-30
2023/01/12 01:17:34;;;;;;;2.63;1.13;;;;;;;8.62;100.00;100897.22;5053460;27;96819;-30
2023/01/12 01:20:00;;;;;;;1.38;0.55;;;;;;;8.62;100.00;100891.81;5055484;27;96798;-30
2023/01/12 01:22:25;;;;;;;5.22;0.85;;;;;;;8.62;100.00;100890.00;5054441;27;99953;-30
2023/01/12 01:24:50;;;;;;;4.30;1.17;;;;;;;8.60;100.00;100889.19;5054740;27;97356;-30
2023/01/12 01:27:16;;;;;;;13.13;1.10;;;;;;;8.61;100.00;100900.91;5053745;27;96891;-30
2023/01/12 01:29:41;;;;;;;9.45;1.05;;;;;;;8.61;100.00;100893.66;5054759;27;96875;-30
2023/01/12 01:32:07;;;;;;;6.90;1.38;;;;;;;8.60;100.00;100894.59;5054604;27;97929;-30
2023/01/12 01:34:32;;;;;;;2.47;1.00;;;;;;;8.63;100.00;100885.50;5054276;27;99244;-30
2023/01/12 01:36:58;;;;;;;9.98;1.63;;;;;;;8.60;100.00;100874.84;5054448;27;96605;-30
2023/01/12 01:39:24;;;;;;;1.73;0.20;;;;;;;8.62;100.00;100883.72;5054851;27;96860;-30
2023/01/12 01:41:50;;;;;;;3.20;0.77;;;;;;;8.60;100.00;100875.69;5054805;27;97567;-30
2023/01/12 01:44:30;;;;;;;3.40;1.02;;;;;;;8.60;100.00;100880.22;5053138;27;100723;-30
2023/01/12 01:47:03;;;;;;;2.38;0.32;;;;;;;8.60;100.00;100873.00;5054735;27;96502;-30
2023/01/12 01:49:45;;;;;;;2.58;0.70;;;;;;;8.61;100.00;100855.88;5053077;27;96908;-30
2023/01/12 01:52:15;;;;;;;4.38;0.63;;;;;;;8.59;100.00;100855.06;5052447;27;101254;-30
2023/01/12 01:54:47;;;;;;;3.83;0.30;;;;;;;8.58;100.00;100842.53;5052940;27;100650;-30
2023/01/12 01:57:13;;;;;;;;;;;;;;;8.61;100.00;100849.59;5055012;27;96629;-31
2023/01/12 01:59:42;;;;;;;0.57;0.30;;;;;;;8.58;100.00;100831.72;5054436;27;96850;-30
2023/01/12 02:02:07;;;;;;;0.88;0.40;;;;;;;8.60;100.00;100818.13;5052789;27;100861;-30
2023/01/12 02:04:34;;;;;;;1.13;0.60;;;;;;;8.59;100.00;100824.50;5054189;27;97779;-30
2023/01/12 02:07:01;;;;;;;0.40;0.20;;;;;;;8.60;100.00;100824.41;5052675;27;96661;-30
2023/01/12 02:09:29;;;;;;;3.15;0.32;;;;;;;8.60;100.00;100819.00;5053126;27;96621;-30
2023/01/12 02:17:50;;;;;;;2.95;1.13;;;;;;;8.67;100.00;100797.94;5053623;27;96716;-30
2023/01/12 02:20:58;;;;;;;4.50;0.80;;;;;;;8.69;100.00;100787.94;5049861;27;96908;-30
2023/01/12 02:24:08;;;;;;;1.75;0.68;;;;;;;8.69;100.00;100785.22;5053948;27;98675;-31
2023/01/12 02:27:03;;;;;;;1.67;0.50;;;;;;;8.68;100.00;100770.00;5049925;27;99360;-30
2023/01/12 02:29:45;;;;;;;0.70;0.40;;;;;;;8.69;100.00;100771.72;5053996;27;96675;-30
2023/01/12 02:32:20;;;;;;;5.82;0.47;;;;;;;8.72;100.00;100774.25;5052580;27;96846;-30
2023/01/12 02:35:10;;;;;;;2.35;0.70;;;;;;;8.73;100.00;100785.97;5053896;27;97381;-31
2023/01/12 02:37:50;;;;;;;1.08;0.50;;;;;;;8.73;100.00;100770.63;5054170;27;97408;-30
2023/01/12 02:40:24;;;;;;;6.05;1.25;;;;;;;8.75;100.00;100754.31;5052055;27;96885;-30
2023/01/12 02:43:14;;;;;;;3.13;0.77;;;;;;;8.75;100.00;100752.50;5051544;27;99313;-30
2023/01/12 02:45:57;;;;;;;2.00;0.73;;;;;;;8.71;100.00;100742.81;5052848;27;99339;-29
2023/01/12 02:48:28;;;;;;;2.10;0.77;;;;;;;8.71;100.00;100738.28;5051951;27;98923;-30
2023/01/12 02:51:21;;;;;;;7.15;0.80;;;;;;;8.73;100.00;100722.00;5053309;27;96657;-31
2023/01/12 02:53:58;;;;;;;3.50;0.68;;;;;;;8.72;100.00;100725.66;5053626;27;96555;-30
2023/01/12 02:56:30;;;;;;;5.53;0.77;;;;;;;8.69;100.00;100712.31;5053244;27;99518;-30
2023/01/12 02:59:02;;;;;;;3.00;0.77;;;;;;;8.67;100.00;100700.75;5051849;27;100812;-31
2023/01/12 03:01:30;;;;;;;4.43;0.57;;;;;;;8.66;100.00;100694.47;5052021;27;96595;-30
2023/01/12 03:03:59;;;;;;;1.42;0.65;;;;;;;8.67;100.00;100692.63;5052340;27;96895;-30
2023/01/12 03:06:42;;;;;;;1.20;0.52;;;;;;;8.67;100.00;100690.81;5051715;27;101263;-30
2023/01/12 03:09:07;;;;;;;4.45;0.75;;;;;;;8.62;100.00;100674.00;5051628;27;100777;-30
2023/01/12 03:11:37;;;;;;;1.65;0.50;;;;;;;8.60;100.00;100667.81;5052417;27;96782;-30
2023/01/12 03:14:05;;;;;;;13.90;0.82;;;;;;;8.58;100.00;100664.34;5051663;27;96919;-31
2023/01/12 03:16:34;;;;;;;1.05;0.52;;;;;;;8.58;100.00;100652.66;5051717;27;100783;-30
2023/01/12 03:19:04;;;;;;;1.98;0.82;;;;;;;8.57;100.00;100638.28;5051433;27;98929;-29
2023/01/12 03:21:41;;;;;;;1.27;0.68;;;;;;;8.52;100.00;100637.69;5051600;27;96673;-30
2023/01/12 03:24:10;;;;;;;3.25;0.95;;;;;;;8.53;100.00;100619.66;5052719;27;96802;-30
2023/01/12 03:26:40;;;;;;;1.25;0.60;;;;;;;8.49;100.00;100576.66;5051389;27;100542;-31
2023/01/12 03:29:42;;;;;;;2.97;0.57;;;;;;;8.46;100.00;100581.34;5051504;27;98876;-30
2023/01/12 03:32:07;;;;;;;2.08;0.47;;;;;;;8.47;100.00;100575.84;5051710;27;96594;-30
2023/01/12 03:34:34;;;;;;;4.65;0.90;;;;;;;8.48;100.00;100568.63;5052565;27;96948;-30
2023/01/12 03:37:22;;;;;;;2.28;0.57;;;;;;;8.47;100.00;100546.16;5050750;27;100836;-30
2023/01/12 03:40:00;;;;;;;1.98;0.70;;;;;;;8.47;100.00;100546.16;5052774;27;97335;-30
2023/01/12 03:43:00;;;;;;;1.35;0.70;;;;;;;8.44;100.00;100538.25;5053257;27;96566;-30
2023/01/12 03:45:40;;;;;;;0.75;0.43;;;;;;;8.43;100.00;100533.81;5053034;27;96664;-30
2023/01/12 03:48:12;;;;;;;0.60;0.20;;;;;;;8.43;100.00;100539.19;5050897;27;100906;-29
2023/01/12 03:50:51;;;;;;;0.75;0.50;;;;;;;8.42;100.00;100507.78;5051075;27;99028;-30
2023/01/12 03:53:20;;;;;;;3.97;0.55;;;;;;;8.41;100.00;100510.56;5051098;27;96723;-29
2023/01/12 03:55:49;;;;;;;0.50;0.38;;;;;;;8.42;100.00;100510.47;5050435;27;96996;-30
2023/01/12 03:58:16;;;;;;;1.13;0.47;;;;;;;8.42;100.00;100510.47;5050805;27;101175;-30
2023/01/12 04:00:42;;;;;;;1.25;0.50;;;;;;;8.42;100.00;100502.38;5050846;27;100843;-29
2023/01/12 04:03:10;;;;;;;1.13;0.60;;;;;;;8.41;100.00;100500.63;5050474;27;96633;-31
2023/01/12 04:05:36;;;;;;;4.25;0.65;;;;;;;8.39;100.00;100490.84;5050790;27;96978;-30
2023/01/12 04:08:01;;;;;;;2.03;0.60;;;;;;;8.41;100.00;100494.38;5050704;27;101144;-30
2023/01/12 04:10:27;;;;;;;3.03;0.95;;;;;;;8.42;100.00;100496.13;5052183;27;98831;-30
2023/01/12 04:12:52;;;;;;;3.47;0.55;;;;;;;8.38;100.00;100472.94;5052706;27;96807;-30
2023/01/12 04:15:17;;;;;;;1.05;0.35;;;;;;;8.43;100.00;100482.53;5052278;27;96983;-30
2023/01/12 04:17:43;;;;;;;0.70;0.40;;;;;;;8.41;100.00;100479.03;5052242;27;97956;-30
2023/01/12 04:20:09;;;;;;;0.50;0.38;;;;;;;8.42;100.00;100474.53;5052458;27;100991;-30
2023/01/12 04:22:44;;;;;;;3.85;0.52;;;;;;;8.42;100.00;100464.59;5050439;27;96640;-29
2023/01/12 04:25:14;;;;;;;0.57;0.32;;;;;;;8.42;100.00;100463.75;5050780;27;96749;-30
2023/01/12 04:27:46;;;;;;;1.70;0.50;;;;;;;8.43;100.00;100455.53;5049604;27;100829;-30
2023/01/12 04:30:12;;;;;;;1.42;0.50;;;;;;;8.39;100.00;100448.56;5051942;27;98990;-30
2023/01/12 04:32:38;;;;;;;5.93;0.63;;;;;;;8.41;100.00;100456.59;5051940;27;96606;-30
2023/01/12 04:35:04;;;;;;;1.02;0.38;;;;;;;8.42;100.00;100437.63;5052043;27;96960;-33
2023/01/12 04:37:33;;;;;;;1.08;0.45;;;;;;;8.37;100.00;100436.13;5052023;27;97357;-32
2023/01/12 04:39:59;;;;;;;0.70;0.40;;;;;;;8.37;100.00;100437.00;5051713;27;99105;-30
2023/01/12 04:45:09;;;;;;;1.20;0.40;;;;;;;8.39;100.00;100437.78;5052503;27;96604;-30
2023/01/12 04:47:34;;;;;;;1.85;0.68;;;;;;;8.38;100.00;100437.84;5051487;27;98070;-30
2023/01/12 04:49:59;;;;;;;1.35;0.55;;;;;;;8.37;100.00;100433.44;5051843;27;98421;-30
2023/01/12 04:52:25;;;;;;;0.55;0.40;;;;;;;8.37;100.00;100438.81;5051416;27;96448;-30
2023/01/12 04:54:50;;;;;;;1.75;0.57;;;;;;;8.39;100.00;100436.88;5051747;27;96929;-30
2023/01/12 04:57:15;;;;;;;1.48;0.60;;;;;;;8.41;100.00;100456.59;5051748;27;96719;-31
2023/01/12 04:59:41;;;;;;;3.25;0.68;;;;;;;8.39;100.00;100445.88;5051517;27;99023;-33
2023/01/12 05:02:06;;;;;;;1.00;0.57;;;;;;;8.37;100.00;100439.69;5051673;27;96512;-30
2023/01/12 05:04:31;;;;;;;2.25;0.93;;;;;;;8.38;100.00;100441.41;5052022;27;97128;-30
2023/01/12 05:06:57;;;;;;;0.45;0.38;;;;;;;8.41;100.00;100456.59;5053679;27;97452;-30
2023/01/12 05:12:06;;;;;;;1.15;0.60;;;;;;;8.40;100.00;100450.31;5055456;27;96557;-31
2023/01/12 05:14:31;;;;;;;3.58;0.43;;;;;;;8.41;100.00;100437.69;5055022;27;96886;-30
2023/01/12 05:16:58;;;;;;;0.95;0.52;;;;;;;8.41;100.00;100421.50;5054705;27;97421;-30
2023/01/12 05:19:23;;;;;;;0.40;0.15;;;;;;;8.37;100.00;100434.28;5053398;27;100934;-30
2023/01/12 05:21:49;;;;;;;0.75;0.20;;;;;;;8.40;100.00;100434.13;5055193;27;96730;-30
2023/01/12 05:24:14;;;;;;;1.95;0.32;;;;;;;8.43;100.00;100430.38;5053448;27;96897;-30
2023/01/12 05:26:40;;;;;;;3.30;0.20;;;;;;;8.44;100.00;100449.19;5054514;27;98932;-30
2023/01/12 05:29:07;;;;;;;0.22;0.20;;;;;;;8.48;100.00;100441.75;5054533;27;97230;-30
2023/01/12 05:31:33;;;;;;;1.77;0.15;;;;;;;8.48;100.00;100442.63;5053518;27;96590;-30
2023/01/12 05:33:58;;;;;;;3.03;0.50;;;;;;;8.52;100.00;100445.16;5053775;27;96853;-30
2023/01/12 05:36:23;;;;;;;0.40;0.30;;;;;;;8.52;100.00;100437.94;5054753;27;98037;-30
2023/01/12 05:38:49;;;;;;;2.83;0.28;;;;;;;8.57;100.00;100440.34;5054677;27;97736;-30
2023/01/12 05:41:14;;;;;;;0.20;0.20;;;;;;;8.59;100.00;100428.50;5054258;27;96778;-31
2023/01/12 05:43:49;;;;;;;0.50;0.30;;;;;;;8.65;100.00;100428.16;5053893;27;96938;-30
2023/01/12 05:46:15;;;;;;;0.43;0.20;;;;;;;8.66;100.00;100418.22;5054564;27;97556;-30
2023/01/12 05:48:41;;;;;;;2.05;0.82;;;;;;;8.70;100.00;100426.03;5052779;27;100987;-30
2023/01/12 05:51:09;;;;;;;0.70;0.50;;;;;;;8.75;100.00;100431.16;5054630;27;96495;-30
2023/01/12 05:53:35;;;;;;;0.45;0.30;;;;;;;8.74;100.00;100399.69;5053011;27;96841;-31
2023/01/12 05:56:15;;;;;;;0.05;0.05;;;;;;;8.81;100.00;100424.50;5054417;27;97199;-30
2023/01/12 05:58:41;;;;;;;0.90;0.30;;;;;;;8.84;100.00;100397.28;5053344;27;100752;-30
2023/01/12 06:01:08;;;;;;;0.75;0.38;;;;;;;8.85;100.00;100402.63;5054375;27;96698;-31
2023/01/12 06:03:34;;;;;;;2.25;0.20;;;;;;;8.90;100.00;100429.34;5052863;27;96849;-29
2023/01/12 06:06:00;;;;;;;5.22;0.70;;;;;;;8.91;100.00;100449.97;5052127;27;101029;-30
2023/01/12 06:08:26;;;;;;;3.25;0.43;;;;;;;8.96;100.00;100445.16;5054191;27;97937;-30
2023/01/12 06:10:51;;;;;;;1.55;0.28;;;;;;;8.99;100.00;100426.09;5054207;27;96543;-30
2023/01/12 06:16:05;;;;;;;1.27;0.57;;;;;;;9.12;100.00;100428.88;5052792;27;97195;-30
2023/01/12 06:18:35;;;;;;;2.38;1.13;;;;;;;9.19;100.00;100441.03;5051425;27;101993;-30
2023/01/12 06:21:02;;;;;;;0.45;0.10;;;;;;;9.23;100.00;100431.78;5052463;27;97116;-30
2023/01/12 06:23:28;;;;;;;0.47;0.20;;;;;;;9.27;100.00;100448.66;5052568;27;97032;-30
2023/01/12 06:25:54;;;;;;;0.65;0.22;;;;;;;9.32;100.00;100417.69;5054272;27;97372;-30
2023/01/12 06:28:20;;;;;;;0.50;0.35;;;;;;;9.35;100.00;100413.94;5053262;27;96907;-30
2023/01/12 06:31:03;;;;;;;6.75;0.50;;;;;;;9.40;100.00;100409.09;5051843;27;97416;-29
2023/01/12 06:33:30;;;;;;;8.50;0.70;;;;;;;9.44;100.00;100428.66;5052308;27;96946;-30
2023/01/12 06:35:55;;;;;;;3.88;0.45;;;;;;;9.44;100.00;100418.75;5052049;27;101291;-29
2023/01/12 06:38:23;;;;;;;0.22;0.13;;;;;;;9.49;100.00;100437.38;5053484;27;99354;-30
2023/01/12 06:40:49;;;;;;;2.60;0.63;;;;;;;9.54;100.00;100454.19;5053409;27;96608;-31
2023/01/12 06:43:15;;;;;;;1.02;0.25;;;;;;;9.57;100.00;100456.69;5053318;27;96822;-31
2023/01/12 06:45:41;;;;;;;0.93;0.47;;;;;;;9.58;100.00;100439.47;5051948;27;101087;-30
2023/01/12 06:48:06;;;;;;;2.40;0.50;;;;;;;9.60;100.00;100432.13;5053314;27;99161;-30
2023/01/12 06:50:33;;;;;;;2.30;0.50;;;;;;;9.62;100.00;100454.53;5053315;27;96499;-31
2023/01/12 06:52:59;;;;;;;1.00;0.50;;;;;;;9.63;100.00;100429.25;5053576;27;96794;-30
2023/01/12 06:55:24;;;;;;;4.60;0.68;;;;;;;9.69;100.00;100439.66;5051406;27;101010;-30
2023/01/12 06:57:50;;;;;;;3.47;0.90;;;;;;;9.77;100.00;100441.84;5053416;27;97872;-31
2023/01/12 07:00:16;;;;;;;6.78;1.15;;;;;;;9.82;100.00;100452.38;5053568;27;96433;-30
2023/01/12 07:02:41;;;;;;;3.22;0.95;;;;;;;9.85;100.00;100453.06;5051766;27;96802;-30
2023/01/12 07:05:07;;;;;;;0.43;0.35;;;;;;;9.85;100.00;100450.38;5053402;27;97562;-30
2023/01/12 07:07:33;;;;;;;5.68;0.80;;;;;;;9.85;100.00;100436.84;5051708;27;100772;-30
2023/01/12 07:09:58;;;;;;;2.55;1.00;;;;;;;9.86;100.00;100453.94;5051718;27;96661;-30
2023/01/12 07:12:24;;;;;;;3.25;0.52;;;;;;;9.86;100.00;100475.56;5053416;27;96925;-29
2023/01/12 07:14:49;;;;;;;4.20;1.13;;;;;;;9.87;100.00;100488.16;5053028;27;98007;-31
2023/01/12 07:17:15;;;;;;;3.40;0.55;;;;;;;9.87;100.00;100485.44;5052933;27;97322;-30
2023/01/12 07:19:41;;;;;;;2.55;0.98;;;;;;;9.88;100.00;100474.50;5051212;27;97046;-30
2023/01/12 07:22:06;;;;;;;1.85;0.68;;;;;;;9.90;100.00;100479.81;5052947;27;96760;-30
2023/01/12 07:24:31;;;;;;;1.30;0.57;;;;;;;9.89;100.00;100488.91;5053067;27;97519;-30
2023/01/12 07:26:57;;;;;;;2.03;0.80;;;;;;;9.92;100.00;100492.28;5052551;27;97397;-30
2023/01/12 07:29:24;;;;;;;5.38;0.80;;;;;;;9.93;100.00;100485.03;5052638;27;96576;-30
2023/01/12 07:31:49;;;;;;;2.85;0.70;;;;;;;9.96;100.00;100492.94;5051166;27;96934;-30
2023/01/12 07:34:14;;;;;;;0.35;0.10;;;;;;;9.93;100.00;100491.31;5052506;27;99499;-30
2023/01/12 07:36:41;;;;;;;5.57;0.73;;;;;;;9.94;100.00;100503.03;5053332;27;97337;-29
2023/01/12 07:39:07;;;;;;;4.68;1.05;;;;;;;9.94;100.00;100494.91;5052821;27;96605;-30
2023/01/12 07:44:17;;;;;;;4.10;0.55;;;;;;;9.98;100.00;100502.69;5051739;27;96530;-30
2023/01/12 07:46:42;;;;;;;3.60;0.82;;;;;;;9.99;100.00;100507.16;5052671;27;97877;-30
2023/01/12 07:49:08;;;;;;;1.00;0.45;;;;;;;10.03;100.00;100506.94;5052546;27;97499;-30
2023/01/12 07:51:33;;;;;;;8.85;1.00;;;;;;;10.04;100.00;100509.56;5052968;27;96854;-30
2023/01/12 07:53:58;;;;;;;3.45;0.68;;;;;;;10.06;100.00;100534.69;5052206;27;99304;-30
2023/01/12 07:56:24;;;;;;;7.03;1.08;;;;;;;10.08;100.00;100513.81;5052502;27;97806;-30
2023/01/12 07:58:49;;;;;;;6.90;0.93;;;;;;;10.09;100.00;100515.53;5052516;27;96559;-31
2023/01/12 08:01:15;;;;;;;2.47;0.75;;;;;;;10.11;100.00;100531.69;5053121;27;96954;-29
2023/01/12 08:03:40;;;;;;;0.70;0.38;;;;;;;10.11;100.00;100534.41;5050946;27;100674;-30
2023/01/12 08:06:06;;;;;;;10.63;1.13;;;;;;;10.07;100.00;100540.97;5052155;27;98934;-30
2023/01/12 08:08:32;;;;;;;3.30;0.60;;;;;;;10.09;100.00;100520.94;5050510;27;96998;-30
2023/01/12 08:11:03;;;;;;;6.22;0.57;;;;;;;10.09;100.00;100526.38;5052660;27;96808;-30
2023/01/12 08:13:28;;;;;;;3.42;0.95;;;;;;;10.10;100.00;100535.34;5050877;27;100648;-29
2023/01/12 08:15:54;;;;;;;1.77;0.70;;;;;;;10.13;100.00;100538.75;5052067;27;99995;-31
2023/01/12 08:18:28;;;;;;;2.90;0.63;;;;;;;10.14;100.00;100542.31;5052614;27;96640;-30
2023/01/12 08:20:58;;;;;;;4.50;0.80;;;;;;;10.14;100.00;100540.47;5050834;27;96817;-31
2023/01/12 08:23:32;;;;;;;3.97;0.85;;;;;;;10.13;100.00;100551.38;5050401;27;101892;-30
2023/01/12 08:26:01;;;;;;;1.88;0.82;;;;;;;10.14;100.00;100564.81;5051435;27;100809;-30
2023/01/12 08:28:33;;;;;;;5.10;0.93;;;;;;;10.14;100.00;100559.41;5050164;27;96626;-30
2023/01/12 08:30:58;;;;;;;3.72;0.75;;;;;;;10.12;100.00;100558.63;5050710;27;96834;-30
2023/01/12 08:33:25;;;;;;;4.72;1.10;;;;;;;10.14;100.00;100536.91;5050090;27;101230;-30
2023/01/12 08:35:51;;;;;;;3.47;0.77;;;;;;;10.17;100.00;100537.56;5050500;27;100728;-30
2023/01/12 08:38:18;;;;;;;4.55;0.82;;;;;;;10.18;100.00;100555.53;5050705;27;96636;-31
2023/01/12 08:46:11;;;;;;;5.07;1.08;;;;;;;10.23;100.00;100549.84;5055668;27;97049;-30
2023/01/12 08:48:37;;;;;;;9.65;1.75;;;;;;;10.23;100.00;100563.38;5055339;27;96543;-30
2023/01/12 08:51:06;;;;;;;8.75;1.27;;;;;;;10.24;100.00;100554.25;5054425;27;96876;-30
2023/01/12 08:53:32;;;;;;;4.90;1.10;;;;;;;10.24;100.00;100556.09;5053734;27;101026;-31
2023/01/12 08:55:57;;;;;;;2.03;0.70;;;;;;;10.28;100.00;100563.06;5055637;27;97176;-30
2023/01/12 08:58:23;;;;;;;8.10;0.82;;;;;;;10.28;100.00;100542.31;5054750;27;96711;-30
2023/01/12 09:00:48;;;;;;;7.10;1.65;;;;;;;10.29;100.00;100570.25;5055541;27;96847;-30
2023/01/12 09:03:13;;;;;;;4.20;1.35;;;;;;;10.30;100.00;100556.63;5055322;27;97349;-30
2023/01/12 09:05:39;;;;;;;8.80;1.13;;;;;;;10.28;100.00;100561.25;5054818;27;98691;-30
2023/01/12 09:08:04;;;;;;;9.52;1.13;;;;;;;10.32;100.00;100579.06;5055208;27;96507;-31
2023/01/12 09:10:29;;;;;;;3.28;0.68;;;;;;;10.36;100.00;100582.41;5055319;27;96616;-30
2023/01/12 09:12:55;;;;;;;3.13;0.88;;;;;;;10.36;100.00;100568.88;5054967;27;97666;-30
2023/01/12 09:15:21;;;;;;;15.63;2.00;;;;;;;10.38;100.00;100597.59;5055124;27;98973;-30
2023/01/12 09:17:53;;;;;;;6.70;1.10;;;;;;;10.39;100.00;100584.91;5053557;27;96693;-30
2023/01/12 09:20:19;;;;;;;6.07;1.15;;;;;;;10.40;100.00;100590.25;5053452;27;96892;-31
2023/01/12 09:22:44;;;;;;;7.38;1.17;;;;;;;10.39;100.00;100590.31;5053887;27;99338;-30
2023/01/12 09:25:10;;;;;;;3.50;1.40;;;;;;;10.40;100.00;100586.66;5054796;27;97415;-32
2023/01/12 09:27:35;;;;;;;9.00;1.73;;;;;;;10.40;100.00;100600.22;5054496;27;96770;-30
2023/01/12 09:30:00;;;;;;;6.13;1.15;;;;;;;10.44;100.00;100625.22;5054897;27;96834;-30
2023/01/12 09:32:26;;;;;;;7.75;1.33;;;;;;;10.44;100.00;100617.09;5054878;27;98125;-30
2023/01/12 09:34:53;;;;;;;7.25;0.80;;;;;;;10.44;100.00;100609.88;5070001;27;101013;-31
2023/01/12 09:37:18;;;;;;;8.02;1.40;;;;;;;10.43;100.00;100612.66;5054821;27;96629;-29
2023/01/12 09:39:43;;;;;;;4.53;0.98;;;;;;;10.44;100.00;100620.72;5055170;27;96794;-30
2023/01/12 09:47:51;;;;;;;4.18;0.80;;;;;;;10.43;100.00;100632.50;5054529;27;96552;-30
2023/01/12 09:50:27;;;;;;;2.83;0.95;;;;;;;10.43;100.00;100618.94;5054321;27;96885;-33
2023/01/12 09:52:53;;;;;;;2.92;0.90;;;;;;;10.47;100.00;100635.88;5051601;27;98966;-31
2023/01/12 09:55:21;;;;;;;4.05;1.38;;;;;;;10.45;100.00;100627.84;5054259;27;99075;-31
2023/01/12 09:57:58;;;;;;;9.35;1.55;;;;;;;10.48;100.00;100646.59;5052978;27;96768;-31
2023/01/12 10:00:27;;;;;;;5.22;1.13;;;;;;;10.51;100.00;100643.72;5054263;27;96674;-32
2023/01/12 10:03:12;;;;;;;5.00;1.13;;;;;;;10.51;100.00;100646.44;5052707;27;101022;-30
2023/01/12 10:05:44;;;;;;;9.18;1.45;;;;;;;10.52;100.00;100656.28;5053212;27;100717;-30
2023/01/12 10:08:21;;;;;;;;;;;;;;;10.53;100.00;100649.88;5053050;27;96599;-30
2023/01/12 10:11:00;;;;;;;3.40;0.50;;;;;;;10.51;100.00;100645.53;5053119;27;96970;-30
2023/01/12 10:13:35;;;;;;;2.08;0.45;;;;;;;10.51;100.00;100649.13;5052465;27;100894;-30
2023/01/12 10:16:08;;;;;;;3.40;0.90;;;;;;;10.49;100.00;100656.47;5052546;27;100800;-30
2023/01/12 10:18:41;;;;;;;1.08;0.77;;;;;;;10.47;100.00;100647.59;5052546;27;96771;-30
2023/01/12 10:21:09;;;;;;;3.53;0.57;;;;;;;10.50;100.00;100660.06;5052597;27;96785;-30
2023/01/12 10:23:35;;;;;;;6.13;1.15;;;;;;;10.47;100.00;100658.41;5052149;27;101504;-30
2023/01/12 10:26:13;;;;;;;9.35;1.05;;;;;;;10.46;100.00;100644.97;5054076;27;97884;-30
2023/01/12 10:28:43;;;;;;;7.63;0.98;;;;;;;10.48;100.00;100651.16;5052130;27;96996;-30
2023/01/12 10:31:21;;;;;;;3.42;0.52;;;;;;;10.49;100.00;100631.25;5052740;27;96745;-30
2023/01/12 10:34:07;;;;;;;6.85;0.98;;;;;;;10.50;100.00;100655.50;5053789;27;98097;-30
2023/01/12 10:36:42;;;;;;;6.15;1.60;;;;;;;10.52;100.00;100637.31;5052278;27;100851;-30
2023/01/12 10:39:30;;;;;;;8.00;0.70;;;;;;;10.53;100.00;100651.72;5053390;27;96578;-30
2023/01/12 10:42:07;;;;;;;7.25;0.80;;;;;;;10.54;100.00;100651.63;5053581;27;96725;-30
2023/01/12 10:44:33;;;;;;;2.47;1.00;;;;;;;10.55;100.00;100650.66;5053119;27;99092;-30
2023/01/12 10:47:09;;;;;;;4.38;1.00;;;;;;;10.57;100.00;100658.69;5053734;27;97903;-30
2023/01/12 10:49:34;;;;;;;3.70;1.20;;;;;;;10.59;100.00;100644.06;5052183;27;97073;-30
2023/01/12 10:52:06;;;;;;;8.27;1.15;;;;;;;10.59;100.00;100660.31;5053523;27;96780;-31
2023/01/12 10:54:35;;;;;;;5.25;1.02;;;;;;;10.59;100.00;100649.50;5051987;27;101589;-30
2023/01/12 10:57:06;;;;;;;7.45;1.10;;;;;;;10.59;100.00;100648.63;5052164;27;101368;-31
2023/01/12 10:59:34;;;;;;;2.60;0.67;;;;;;;10.58;100.00;100647.75;5053428;27;96574;-30
2023/01/12 11:02:10;;;;;;;8.85;1.38;;;;;;;10.60;100.00;100647.66;5052088;27;96977;-30
2023/01/12 11:04:44;;;;;;;3.20;1.20;;;;;;;10.58;100.00;100645.06;5050477;27;101115;-30
2023/01/12 11:07:27;;;;;;;4.78;1.00;;;;;;;10.58;100.00;100644.16;5051934;27;100968;-32
2023/01/12 11:09:56;;;;;;;5.03;1.45;;;;;;;10.57;100.00;100635.16;5052024;27;96600;-30
2023/01/12 11:12:37;;;;;;;6.82;0.75;;;;;;;10.59;100.00;100648.63;5051811;27;96845;-30
2023/01/12 11:15:08;;;;;;;6.43;1.00;;;;;;;10.58;100.00;100661.31;5051608;27;101112;-30
2023/01/12 11:18:26;;;;;;;3.17;1.00;;;;;;;10.60;100.00;100650.34;5051672;27;101069;-30
2023/01/12 11:21:05;;;;;;;12.45;1.35;;;;;;;10.57;100.00;100647.84;5053401;27;96676;-30
2023/01/12 11:23:40;;;;;;;7.13;1.55;;;;;;;10.59;100.00;100635.09;5051798;27;96663;-30
2023/01/12 11:26:23;;;;;;;7.13;1.33;;;;;;;10.56;100.00;100627.16;5051511;27;100144;-33
2023/01/12 11:28:52;;;;;;;8.38;1.25;;;;;;;10.57;100.00;100648.72;5051139;27;101086;-31
2023/01/12 11:31:25;;;;;;;9.93;1.88;;;;;;;10.56;100.00;100630.75;5051028;27;97017;-30
2023/01/12 11:34:00;;;;;;;8.77;0.90;;;;;;;10.56;100.00;100625.31;5051564;27;96777;-30
2023/01/12 11:36:31;;;;;;;7.50;0.82;;;;;;;10.61;100.00;100630.44;5051395;27;101110;-30
2023/01/12 11:39:00;;;;;;;10.43;1.70;;;;;;;10.60;100.00;100624.13;5051365;27;100890;-30
2023/01/12 11:43:47;;;;;;;6.35;0.70;;;;;;;10.62;100.00;100618.63;5052954;27;96654;-30
2023/01/12 11:44:52;;;;;;;13.13;1.38;;;;;;;10.59;100.00;100633.25;5052293;27;98369;-30
2023/01/12 11:47:22;;;;;;;5.65;0.88;;;;;;;10.61;100.00;100620.47;5051170;27;101113;-29
2023/01/12 11:50:23;;;;;;;4.35;0.98;;;;;;;10.63;100.00;100620.38;5051415;27;101584;-32
2023/01/12 11:52:49;;;;;;;4.18;1.10;;;;;;;10.62;100.00;100624.91;5046917;27;96917;-30
2023/01/12 11:55:28;;;;;;;11.27;1.58;;;;;;;10.61;100.00;100615.06;5051273;27;96872;-30
2023/01/12 11:58:23;;;;;;;3.53;0.77;;;;;;;10.61;100.00;100631.31;5050596;27;100886;-30
2023/01/12 12:01:14;;;;;;;4.75;0.65;;;;;;;10.63;100.00;100629.38;5019808;27;97934;-30
2023/01/12 12:03:56;;;;;;;4.82;0.68;;;;;;;10.61;100.00;100616.91;5052400;27;96665;-30
2023/01/12 12:06:38;;;;;;;3.05;0.82;;;;;;;10.61;100.00;100623.19;5051256;27;96826;-31
2023/01/12 12:09:34;;;;;;;3.55;0.80;;;;;;;10.58;100.00;100590.88;5052236;27;97599;-30